sensor_id;sensor_type;location;lat;lon;timestamp;pressure;altitude;pressure_sealevel;temperature;humidity
48792;BME280;34587;48.816;9.420;2023-08-21T04:16:49;99280.13;;;20.62;100.00
48792;BME280;34587;48.816;9.420;2023-08-21T04:19:14;99272.38;;;20.59;100.00
48792;BME280;34587;48.816;9.420;2023-08-21T04:21:39;99279.66;;;20.71;100.00
48792;BME280;34587;48.816;9.420;2023-08-21T04:24:05;99280.22;;;20.61;100.00
48792;BME280;34587;48.816;9.420;2023-08-21T04:26:30;99281.56;;;20.85;100.00
48792;BME280;34587;48.816;9.420;2023-08-21T04:28:55;99286.47;;;20.75;100.00
48792;BME280;34587;48.816;9.420;2023-08-21T04:31:21;99292.72;;;20.73;100.00
48792;BME280;34587;48.816;9.420;2023-08-21T04:33:46;99293.75;;;20.70;100.00
48792;BME280;34587;48.816;9.420;2023-08-21T04:36:15;99295.78;;;20.65;100.00
48792;BME280;34587;48.816;9.420;2023-08-21T04:38:41;99292.97;;;20.86;100.00
48792;BME280;34587;48.816;9.420;2023-08-21T04:41:07;99295.69;;;20.84;100.00
48792;BME280;34587;48.816;9.420;2023-08-21T04:43:32;99298.47;;;20.81;100.00
48792;BME280;34587;48.816;9.420;2023-08-21T04:45:58;99291.25;;;20.85;100.00
48792;BME280;34587;48.816;9.420;2023-08-21T04:48:23;99292.97;;;20.86;100.00
48792;BME280;34587;48.816;9.420;2023-08-21T04:50:48;99293.09;;;21.00;100.00
48792;BME280;34587;48.816;9.420;2023-08-21T04:53:14;99300.53;;;20.92;100.00
48792;BME280;34587;48.816;9.420;2023-08-21T04:55:40;99295.88;;;20.97;100.00
48792;BME280;34587;48.816;9.420;2023-08-21T04:58:06;99294.19;;;20.96;100.00
48792;BME280;34587;48.816;9.420;2023-08-21T05:00:32;99294.34;;;20.93;100.00
48792;BME280;34587;48.816;9.420;2023-08-21T05:02:57;99300.19;;;21.15;100.00
48792;BME280;34587;48.816;9.420;2023-08-21T05:05:23;99288.66;;;21.18;100.00
48792;BME280;34587;48.816;9.420;2023-08-21T05:07:48;99293.03;;;21.17;100.00
48792;BME280;34587;48.816;9.420;2023-08-21T05:10:13;99289.00;;;21.27;100.00
48792;BME280;34587;48.816;9.420;2023-08-21T05:12:38;99291.44;;;21.48;100.00
48792;BME280;34587;48.816;9.420;2023-08-21T05:15:04;99298.31;;;21.50;100.00
48792;BME280;34587;48.816;9.420;2023-08-21T05:17:29;99289.75;;;21.63;100.00
48792;BME280;34587;48.816;9.420;2023-08-21T05:19:55;99298.38;;;21.66;100.00
48792;BME280;34587;48.816;9.420;2023-08-21T05:22:21;99291.69;;;21.75;100.00
48792;BME280;34587;48.816;9.420;2023-08-21T05:24:46;99296.13;;;21.74;100.00
48792;BME280;34587;48.816;9.420;2023-08-21T05:27:12;99293.69;;;21.71;100.00
48792;BME280;34587;48.816;9.420;2023-08-21T05:29:37;99308.13;;;21.80;100.00
48792;BME280;34587;48.816;9.420;2023-08-21T05:32:02;99304.22;;;21.87;100.00
48792;BME280;34587;48.816;9.420;2023-08-21T05:34:28;99306.00;;;21.87;100.00
48792;BME280;34587;48.816;9.420;2023-08-21T05:36:53;99307.94;;;21.99;100.00
48792;BME280;34587;48.816;9.420;2023-08-21T05:39:19;99299.41;;;22.10;100.00
48792;BME280;34587;48.816;9.420;2023-08-21T05:41:45;99305.56;;;22.10;100.00
48792;BME280;34587;48.816;9.420;2023-08-21T05:44:10;99305.06;;;21.88;100.00
48792;BME280;34587;48.816;9.420;2023-08-21T05:46:35;99308.81;;;21.84;100.00
48792;BME280;34587;48.816;9.420;2023-08-21T05:49:01;99307.63;;;22.05;100.00
48792;BME280;34587;48.816;9.420;2023-08-21T05:51:26;99306.31;;;22.28;100.00
48792;BME280;34587;48.816;9.420;2023-08-21T05:53:51;99319.16;;;22.50;100.00
48792;BME280;34587;48.816;9.420;2023-08-21T05:56:17;99310.31;;;22.65;100.00
48792;BME280;34587;48.816;9.420;2023-08-21T05:58:42;99308.63;;;22.94;100.00
48792;BME280;34587;48.816;9.420;2023-08-21T06:01:07;99311.16;;;22.96;100.00
48792;BME280;34587;48.816;9.420;2023-08-21T06:03:33;99309.88;;;23.03;100.00
48792;BME280;34587;48.816;9.420;2023-08-21T06:05:58;99308.94;;;23.18;100.00
48792;BME280;34587;48.816;9.420;2023-08-21T06:08:23;99314.13;;;23.34;100.00
48792;BME280;34587;48.816;9.420;2023-08-21T06:10:52;99309.38;;;23.39;100.00
48792;BME280;34587;48.816;9.420;2023-08-21T06:13:18;99316.06;;;23.59;100.00
48792;BME280;34587;48.816;9.420;2023-08-21T06:15:44;99312.41;;;23.76;100.00
48792;BME280;34587;48.816;9.420;2023-08-21T06:18:10;99306.97;;;23.92;100.00
48792;BME280;34587;48.816;9.420;2023-08-21T06:20:35;99306.81;;;24.07;100.00
48792;BME280;34587;48.816;9.420;2023-08-21T06:23:01;99313.28;;;24.30;100.00
48792;BME280;34587;48.816;9.420;2023-08-21T06:25:26;99316.31;;;24.39;100.00
48792;BME280;34587;48.816;9.420;2023-08-21T06:27:51;99317.75;;;24.57;100.00
48792;BME280;34587;48.816;9.420;2023-08-21T06:30:17;99314.06;;;24.72;100.00
48792;BME280;34587;48.816;9.420;2023-08-21T06:32:43;99317.00;;;24.68;100.00
48792;BME280;34587;48.816;9.420;2023-08-21T06:35:09;99322.81;;;25.12;100.00
48792;BME280;34587;48.816;9.420;2023-08-21T06:37:34;99322.38;;;25.19;100.00
48792;BME280;34587;48.816;9.420;2023-08-21T06:39:59;99314.50;;;25.55;100.00
48792;BME280;34587;48.816;9.420;2023-08-21T06:42:25;99317.78;;;25.33;100.00
48792;BME280;34587;48.816;9.420;2023-08-21T06:44:51;99311.06;;;25.66;100.00
48792;BME280;34587;48.816;9.420;2023-08-21T06:47:17;99307.09;;;25.97;100.00
48792;BME280;34587;48.816;9.420;2023-08-21T06:49:42;99309.34;;;26.38;100.00
48792;BME280;34587;48.816;9.420;2023-08-21T06:52:07;99302.50;;;26.82;100.00
48792;BME280;34587;48.816;9.420;2023-08-21T06:54:32;99298.97;;;27.39;100.00
48792;BME280;34587;48.816;9.420;2023-08-21T06:56:58;99305.91;;;29.44;85.97
48792;BME280;34587;48.816;9.420;2023-08-21T06:59:23;99299.38;;;31.42;70.39
48792;BME280;34587;48.816;9.420;2023-08-21T07:01:49;99309.50;;;33.19;61.70
48792;BME280;34587;48.816;9.420;2023-08-21T07:04:15;99312.00;;;34.56;54.40
48792;BME280;34587;48.816;9.420;2023-08-21T07:06:41;99302.47;;;35.41;51.77
48792;BME280;34587;48.816;9.420;2023-08-21T07:09:06;99309.84;;;36.49;47.92
48792;BME280;34587;48.816;9.420;2023-08-21T07:11:32;99309.41;;;36.37;48.20
48792;BME280;34587;48.816;9.420;2023-08-21T07:13:57;99315.91;;;37.41;45.39
48792;BME280;34587;48.816;9.420;2023-08-21T07:16:22;99316.94;;;37.55;43.66
48792;BME280;34587;48.816;9.420;2023-08-21T07:18:48;99319.53;;;39.28;40.41
48792;BME280;34587;48.816;9.420;2023-08-21T07:21:13;99313.69;;;39.31;40.07
48792;BME280;34587;48.816;9.420;2023-08-21T07:23:38;99321.56;;;39.19;40.07
48792;BME280;34587;48.816;9.420;2023-08-21T07:26:03;99313.66;;;39.24;40.27
48792;BME280;34587;48.816;9.420;2023-08-21T07:28:32;99315.59;;;39.65;38.81
48792;BME280;34587;48.816;9.420;2023-08-21T07:30:58;99317.47;;;40.26;38.32
48792;BME280;34587;48.816;9.420;2023-08-21T07:33:24;99322.75;;;40.61;37.86
48792;BME280;34587;48.816;9.420;2023-08-21T07:38:24;99325.91;;;41.11;37.30
48792;BME280;34587;48.816;9.420;2023-08-21T07:40:49;99320.84;;;42.37;34.86
48792;BME280;34587;48.816;9.420;2023-08-21T07:43:14;99319.94;;;42.43;34.66
48792;BME280;34587;48.816;9.420;2023-08-21T07:45:40;99321.88;;;41.98;35.38
48792;BME280;34587;48.816;9.420;2023-08-21T07:48:05;99328.25;;;41.72;35.57
48792;BME280;34587;48.816;9.420;2023-08-21T07:50:30;99321.72;;;40.81;37.33
48792;BME280;34587;48.816;9.420;2023-08-21T07:52:56;99329.75;;;42.13;35.18
48792;BME280;34587;48.816;9.420;2023-08-21T07:55:21;99331.69;;;41.47;35.99
48792;BME280;34587;48.816;9.420;2023-08-21T07:57:46;99326.94;;;42.32;34.65
48792;BME280;34587;48.816;9.420;2023-08-21T08:00:12;99327.81;;;41.75;35.48
48792;BME280;34587;48.816;9.420;2023-08-21T08:02:37;99330.81;;;41.53;36.00
48792;BME280;34587;48.816;9.420;2023-08-21T08:05:03;99322.97;;;40.59;37.43
48792;BME280;34587;48.816;9.420;2023-08-21T08:07:28;99327.97;;;40.55;37.02
48792;BME280;34587;48.816;9.420;2023-08-21T08:09:54;99323.59;;;39.93;37.66
48792;BME280;34587;48.816;9.420;2023-08-21T08:12:19;99326.81;;;38.14;41.61
48792;BME280;34587;48.816;9.420;2023-08-21T08:14:45;99316.03;;;38.35;41.46
48792;BME280;34587;48.816;9.420;2023-08-21T08:17:10;99320.66;;;39.75;38.78
48792;BME280;34587;48.816;9.420;2023-08-21T08:19:35;99319.72;;;42.06;34.92
48792;BME280;34587;48.816;9.420;2023-08-21T08:22:00;99327.75;;;39.41;39.59
48792;BME280;34587;48.816;9.420;2023-08-21T08:24:26;99321.28;;;40.84;37.43
48792;BME280;34587;48.816;9.420;2023-08-21T08:26:52;99321.06;;;41.97;35.69
48792;BME280;34587;48.816;9.420;2023-08-21T08:29:18;99316.94;;;41.81;35.12
48792;BME280;34587;48.816;9.420;2023-08-21T08:31:43;99317.53;;;42.85;33.80
48792;BME280;34587;48.816;9.420;2023-08-21T08:34:08;99318.84;;;43.63;33.55
48792;BME280;34587;48.816;9.420;2023-08-21T08:36:35;99315.31;;;44.10;32.94
48792;BME280;34587;48.816;9.420;2023-08-21T08:39:00;99320.63;;;44.47;32.93
48792;BME280;34587;48.816;9.420;2023-08-21T08:41:32;99316.00;;;45.13;31.41
48792;BME280;34587;48.816;9.420;2023-08-21T08:43:59;99311.66;;;44.82;31.85
48792;BME280;34587;48.816;9.420;2023-08-21T08:46:24;99317.66;;;43.58;33.27
48792;BME280;34587;48.816;9.420;2023-08-21T08:48:53;99309.97;;;42.87;34.60
48792;BME280;34587;48.816;9.420;2023-08-21T08:51:19;99313.25;;;40.10;39.02
48792;BME280;34587;48.816;9.420;2023-08-21T08:53:44;99301.28;;;42.40;35.45
48792;BME280;34587;48.816;9.420;2023-08-21T08:56:10;99311.25;;;43.83;33.05
48792;BME280;34587;48.816;9.420;2023-08-21T08:58:35;99305.97;;;42.58;34.44
48792;BME280;34587;48.816;9.420;2023-08-21T09:01:00;99308.97;;;42.50;34.71
48792;BME280;34587;48.816;9.420;2023-08-21T09:03:26;99312.59;;;42.05;35.62
48792;BME280;34587;48.816;9.420;2023-08-21T09:05:51;99310.69;;;42.44;36.03
48792;BME280;34587;48.816;9.420;2023-08-21T09:08:16;99308.94;;;42.56;34.78
48792;BME280;34587;48.816;9.420;2023-08-21T09:10:42;99300.66;;;43.38;34.53
48792;BME280;34587;48.816;9.420;2023-08-21T09:13:10;99310.28;;;42.47;35.25
48792;BME280;34587;48.816;9.420;2023-08-21T09:15:36;99305.34;;;42.63;34.93
48792;BME280;34587;48.816;9.420;2023-08-21T09:18:01;99297.97;;;38.21;41.08
48792;BME280;34587;48.816;9.420;2023-08-21T09:20:27;99298.84;;;40.10;39.92
48792;BME280;34587;48.816;9.420;2023-08-21T09:22:55;99294.50;;;41.86;36.28
48792;BME280;34587;48.816;9.420;2023-08-21T09:25:21;99300.81;;;40.69;37.50
48792;BME280;34587;48.816;9.420;2023-08-21T09:27:51;99288.81;;;42.57;35.68
48792;BME280;34587;48.816;9.420;2023-08-21T09:30:16;99298.66;;;43.27;34.17
48792;BME280;34587;48.816;9.420;2023-08-21T09:32:58;99294.50;;;44.51;32.46
48792;BME280;34587;48.816;9.420;2023-08-21T09:35:29;99294.69;;;43.96;32.50
48792;BME280;34587;48.816;9.420;2023-08-21T09:37:57;99290.41;;;42.08;35.35
48792;BME280;34587;48.816;9.420;2023-08-21T09:40:22;99292.88;;;39.31;39.38
48792;BME280;34587;48.816;9.420;2023-08-21T09:42:59;99285.88;;;39.57;39.27
48792;BME280;34587;48.816;9.420;2023-08-21T09:45:27;99290.69;;;38.64;40.96
48792;BME280;34587;48.816;9.420;2023-08-21T09:47:54;99282.44;;;38.29;41.85
48792;BME280;34587;48.816;9.420;2023-08-21T09:50:20;99286.47;;;38.83;40.48
48792;BME280;34587;48.816;9.420;2023-08-21T09:52:45;99282.41;;;40.97;37.39
48792;BME280;34587;48.816;9.420;2023-08-21T09:55:13;99280.13;;;40.54;38.03
48792;BME280;34587;48.816;9.420;2023-08-21T09:57:39;99280.66;;;41.23;37.04
48792;BME280;34587;48.816;9.420;2023-08-21T10:00:08;99278.03;;;40.63;36.67
48792;BME280;34587;48.816;9.420;2023-08-21T10:02:46;99276.56;;;38.26;40.74
48792;BME280;34587;48.816;9.420;2023-08-21T10:05:16;99279.31;;;41.58;36.31
48792;BME280;34587;48.816;9.420;2023-08-21T10:07:47;99269.03;;;42.05;34.19
48792;BME280;34587;48.816;9.420;2023-08-21T10:10:12;99267.53;;;44.01;31.36
48792;BME280;34587;48.816;9.420;2023-08-21T10:12:38;99269.56;;;42.52;33.30
48792;BME280;34587;48.816;9.420;2023-08-21T10:15:05;99273.03;;;42.03;33.82
48792;BME280;34587;48.816;9.420;2023-08-21T10:17:32;99276.16;;;40.77;36.12
48792;BME280;34587;48.816;9.420;2023-08-21T10:20:07;99262.75;;;40.49;35.94
48792;BME280;34587;48.816;9.420;2023-08-21T10:25:21;99248.81;;;39.77;37.48
48792;BME280;34587;48.816;9.420;2023-08-21T10:27:53;99258.22;;;41.47;34.92
48792;BME280;34587;48.816;9.420;2023-08-21T10:30:23;99245.66;;;41.91;33.06
48792;BME280;34587;48.816;9.420;2023-08-21T10:32:52;99254.47;;;46.58;28.23
48792;BME280;34587;48.816;9.420;2023-08-21T10:35:22;99250.84;;;47.30;26.49
48792;BME280;34587;48.816;9.420;2023-08-21T10:40:32;99240.84;;;43.85;30.78
48792;BME280;34587;48.816;9.420;2023-08-21T10:42:59;99242.31;;;45.00;29.07
48792;BME280;34587;48.816;9.420;2023-08-21T10:45:24;99250.38;;;45.30;29.55
48792;BME280;34587;48.816;9.420;2023-08-21T10:47:49;99235.66;;;43.95;31.67
48792;BME280;34587;48.816;9.420;2023-08-21T10:50:16;99237.44;;;45.13;28.99
48792;BME280;34587;48.816;9.420;2023-08-21T10:52:43;99235.66;;;44.37;29.74
48792;BME280;34587;48.816;9.420;2023-08-21T10:55:14;99244.38;;;45.04;30.06
48792;BME280;34587;48.816;9.420;2023-08-21T10:57:39;99237.34;;;45.60;29.28
48792;BME280;34587;48.816;9.420;2023-08-21T11:00:12;99232.28;;;41.90;33.80
48792;BME280;34587;48.816;9.420;2023-08-21T11:02:42;99231.91;;;43.48;31.75
48792;BME280;34587;48.816;9.420;2023-08-21T11:05:09;99231.66;;;43.13;31.78
48792;BME280;34587;48.816;9.420;2023-08-21T11:07:45;99226.47;;;43.59;31.67
48792;BME280;34587;48.816;9.420;2023-08-21T11:10:15;99224.56;;;43.42;31.98
48792;BME280;34587;48.816;9.420;2023-08-21T11:12:54;99227.72;;;43.45;31.04
48792;BME280;34587;48.816;9.420;2023-08-21T11:15:24;99230.59;;;43.50;30.99
48792;BME280;34587;48.816;9.420;2023-08-21T11:17:59;99221.50;;;45.91;29.15
48792;BME280;34587;48.816;9.420;2023-08-21T11:20:32;99226.66;;;44.83;29.45
48792;BME280;34587;48.816;9.420;2023-08-21T11:23:04;99220.75;;;46.12;28.05
48792;BME280;34587;48.816;9.420;2023-08-21T11:25:32;99220.19;;;43.59;30.99
48792;BME280;34587;48.816;9.420;2023-08-21T11:27:58;99219.53;;;44.05;30.72
48792;BME280;34587;48.816;9.420;2023-08-21T11:30:23;99219.28;;;42.48;32.34
48792;BME280;34587;48.816;9.420;2023-08-21T11:32:49;99226.03;;;44.46;29.91
48792;BME280;34587;48.816;9.420;2023-08-21T11:35:15;99224.53;;;43.48;31.32
48792;BME280;34587;48.816;9.420;2023-08-21T11:37:44;99224.25;;;41.56;33.42
48792;BME280;34587;48.816;9.420;2023-08-21T11:40:13;99221.16;;;42.73;32.62
48792;BME280;34587;48.816;9.420;2023-08-21T11:42:39;99211.47;;;43.50;31.47
48792;BME280;34587;48.816;9.420;2023-08-21T11:45:05;99211.31;;;41.90;33.17
48792;BME280;34587;48.816;9.420;2023-08-21T11:47:34;99214.88;;;42.47;32.13
48792;BME280;34587;48.816;9.420;2023-08-21T11:50:07;99208.13;;;44.74;29.55
48792;BME280;34587;48.816;9.420;2023-08-21T11:52:34;99212.97;;;44.72;29.28
48792;BME280;34587;48.816;9.420;2023-08-21T11:55:07;99210.13;;;44.67;29.97
48792;BME280;34587;48.816;9.420;2023-08-21T11:57:32;99207.09;;;42.94;31.65
48792;BME280;34587;48.816;9.420;2023-08-21T11:59:57;99208.59;;;45.34;28.62
48792;BME280;34587;48.816;9.420;2023-08-21T12:02:27;99204.13;;;44.23;29.81
48792;BME280;34587;48.816;9.420;2023-08-21T12:05:14;99204.06;;;43.02;31.71
48792;BME280;34587;48.816;9.420;2023-08-21T12:07:39;99209.66;;;42.46;32.51
48792;BME280;34587;48.816;9.420;2023-08-21T12:10:05;99198.81;;;40.20;35.77
48792;BME280;34587;48.816;9.420;2023-08-21T12:12:30;99192.81;;;39.15;37.18
48792;BME280;34587;48.816;9.420;2023-08-21T12:14:56;99201.97;;;38.45;38.42
48792;BME280;34587;48.816;9.420;2023-08-21T12:17:22;99199.59;;;37.92;39.97
48792;BME280;34587;48.816;9.420;2023-08-21T12:19:47;99202.94;;;36.92;41.81
48792;BME280;34587;48.816;9.420;2023-08-21T12:22:12;99200.41;;;36.38;43.44
48792;BME280;34587;48.816;9.420;2023-08-21T12:24:38;99195.81;;;36.62;42.93
48792;BME280;34587;48.816;9.420;2023-08-21T12:27:04;99191.88;;;35.58;45.72
48792;BME280;34587;48.816;9.420;2023-08-21T12:29:29;99196.19;;;35.98;44.53
48792;BME280;34587;48.816;9.420;2023-08-21T12:31:54;99191.84;;;36.12;44.50
48792;BME280;34587;48.816;9.420;2023-08-21T12:34:20;99191.19;;;35.64;44.10
48792;BME280;34587;48.816;9.420;2023-08-21T12:36:45;99176.41;;;35.51;44.55
48792;BME280;34587;48.816;9.420;2023-08-21T12:39:10;99176.25;;;36.60;43.60
48792;BME280;34587;48.816;9.420;2023-08-21T12:41:36;99186.59;;;35.87;43.80
48792;BME280;34587;48.816;9.420;2023-08-21T12:44:01;99185.34;;;35.44;44.53
48792;BME280;34587;48.816;9.420;2023-08-21T12:46:34;99180.03;;;35.67;43.73
48792;BME280;34587;48.816;9.420;2023-08-21T12:48:59;99174.94;;;35.41;44.62
48792;BME280;34587;48.816;9.420;2023-08-21T12:51:27;99181.63;;;34.50;45.21
48792;BME280;34587;48.816;9.420;2023-08-21T12:53:52;99173.41;;;34.19;46.82
48792;BME280;34587;48.816;9.420;2023-08-21T12:56:17;99168.53;;;34.06;48.04
48792;BME280;34587;48.816;9.420;2023-08-21T12:58:43;99162.47;;;34.29;47.49
48792;BME280;34587;48.816;9.420;2023-08-21T13:01:08;99162.59;;;34.51;48.51
48792;BME280;34587;48.816;9.420;2023-08-21T13:03:35;99157.00;;;35.25;45.85
48792;BME280;34587;48.816;9.420;2023-08-21T13:06:00;99162.78;;;34.58;46.33
48792;BME280;34587;48.816;9.420;2023-08-21T13:08:25;99160.94;;;34.34;47.90
48792;BME280;34587;48.816;9.420;2023-08-21T13:10:52;99155.56;;;34.18;48.28
48792;BME280;34587;48.816;9.420;2023-08-21T13:13:17;99158.22;;;33.77;49.69
48792;BME280;34587;48.816;9.420;2023-08-21T13:15:42;99155.78;;;33.41;50.45
48792;BME280;34587;48.816;9.420;2023-08-21T13:18:11;99153.09;;;33.41;49.85
48792;BME280;34587;48.816;9.420;2023-08-21T13:20:38;99150.63;;;34.70;48.25
48792;BME280;34587;48.816;9.420;2023-08-21T13:23:03;99159.03;;;35.15;47.35
48792;BME280;34587;48.816;9.420;2023-08-21T13:25:28;99147.16;;;34.13;48.75
48792;BME280;34587;48.816;9.420;2023-08-21T13:27:55;99145.28;;;34.46;48.75
48792;BME280;34587;48.816;9.420;2023-08-21T13:30:20;99150.69;;;34.21;47.74
48792;BME280;34587;48.816;9.420;2023-08-21T13:32:47;99143.25;;;34.40;48.63
48792;BME280;34587;48.816;9.420;2023-08-21T13:35:12;99137.63;;;34.82;45.97
48792;BME280;34587;48.816;9.420;2023-08-21T13:37:39;99142.13;;;34.10;48.55
48792;BME280;34587;48.816;9.420;2023-08-21T13:40:05;99137.06;;;34.23;47.67
48792;BME280;34587;48.816;9.420;2023-08-21T13:42:38;99136.19;;;33.57;48.62
48792;BME280;34587;48.816;9.420;2023-08-21T13:45:07;99128.84;;;33.17;49.70
48792;BME280;34587;48.816;9.420;2023-08-21T13:47:33;99126.16;;;33.09;50.66
48792;BME280;34587;48.816;9.420;2023-08-21T13:49:58;99129.28;;;33.46;49.99
48792;BME280;34587;48.816;9.420;2023-08-21T13:52:24;99135.19;;;33.74;48.12
48792;BME280;34587;48.816;9.420;2023-08-21T13:54:49;99126.47;;;34.30;47.19
48792;BME280;34587;48.816;9.420;2023-08-21T13:57:14;99119.56;;;34.35;47.65
48792;BME280;34587;48.816;9.420;2023-08-21T13:59:39;99117.22;;;33.83;48.38
48792;BME280;34587;48.816;9.420;2023-08-21T14:02:05;99104.81;;;33.98;46.65
48792;BME280;34587;48.816;9.420;2023-08-21T14:04:32;99104.25;;;34.36;45.12
48792;BME280;34587;48.816;9.420;2023-08-21T14:06:57;99114.34;;;34.25;46.14
48792;BME280;34587;48.816;9.420;2023-08-21T14:09:22;99109.09;;;34.57;44.15
48792;BME280;34587;48.816;9.420;2023-08-21T14:11:48;99101.81;;;35.13;44.89
48792;BME280;34587;48.816;9.420;2023-08-21T14:14:13;99101.38;;;34.37;45.60
48792;BME280;34587;48.816;9.420;2023-08-21T14:16:38;99102.44;;;33.63;47.06
48792;BME280;34587;48.816;9.420;2023-08-21T14:19:03;99103.78;;;33.91;45.47
48792;BME280;34587;48.816;9.420;2023-08-21T14:21:29;99097.75;;;34.06;44.59
48792;BME280;34587;48.816;9.420;2023-08-21T14:23:54;99100.03;;;34.49;43.81
48792;BME280;34587;48.816;9.420;2023-08-21T14:26:19;99097.59;;;34.71;44.22
48792;BME280;34587;48.816;9.420;2023-08-21T14:28:45;99094.38;;;35.15;44.45
48792;BME280;34587;48.816;9.420;2023-08-21T14:31:15;99101.00;;;34.57;45.42
48792;BME280;34587;48.816;9.420;2023-08-21T14:33:41;99093.78;;;35.05;44.47
48792;BME280;34587;48.816;9.420;2023-08-21T14:36:06;99101.75;;;34.18;45.23
48792;BME280;34587;48.816;9.420;2023-08-21T14:38:32;99093.72;;;33.85;46.49
48792;BME280;34587;48.816;9.420;2023-08-21T14:40:57;99099.50;;;33.32;47.47
48792;BME280;34587;48.816;9.420;2023-08-21T14:43:23;99095.31;;;33.29;46.62
48792;BME280;34587;48.816;9.420;2023-08-21T14:45:48;99095.69;;;33.59;46.33
48792;BME280;34587;48.816;9.420;2023-08-21T14:48:13;99088.66;;;33.90;46.86
48792;BME280;34587;48.816;9.420;2023-08-21T14:50:39;99082.56;;;34.29;44.61
48792;BME280;34587;48.816;9.420;2023-08-21T14:53:04;99083.25;;;34.23;44.47
48792;BME280;34587;48.816;9.420;2023-08-21T14:55:29;99082.97;;;34.01;45.09
48792;BME280;34587;48.816;9.420;2023-08-21T14:57:55;99079.56;;;33.59;46.26
48792;BME280;34587;48.816;9.420;2023-08-21T15:00:20;99083.56;;;33.38;46.33
48792;BME280;34587;48.816;9.420;2023-08-21T15:02:45;99078.84;;;33.40;47.40
48792;BME280;34587;48.816;9.420;2023-08-21T15:05:10;99086.25;;;33.38;47.49
48792;BME280;34587;48.816;9.420;2023-08-21T15:07:37;99073.19;;;33.68;46.13
48792;BME280;34587;48.816;9.420;2023-08-21T15:10:02;99068.53;;;33.94;45.77
48792;BME280;34587;48.816;9.420;2023-08-21T15:12:27;99079.69;;;33.33;47.31
48792;BME280;34587;48.816;9.420;2023-08-21T15:14:53;99076.75;;;33.02;47.51
48792;BME280;34587;48.816;9.420;2023-08-21T15:17:18;99071.84;;;33.47;46.65
48792;BME280;34587;48.816;9.420;2023-08-21T15:19:44;99072.47;;;33.33;48.05
48792;BME280;34587;48.816;9.420;2023-08-21T15:22:09;99068.69;;;33.02;47.86
48792;BME280;34587;48.816;9.420;2023-08-21T15:24:34;99068.81;;;33.42;48.01
48792;BME280;34587;48.816;9.420;2023-08-21T15:26:59;99065.63;;;33.80;47.90
48792;BME280;34587;48.816;9.420;2023-08-21T15:29:25;99063.09;;;33.37;46.65
48792;BME280;34587;48.816;9.420;2023-08-21T15:31:50;99069.13;;;33.39;47.04
48792;BME280;34587;48.816;9.420;2023-08-21T15:34:16;99054.00;;;33.30;47.11
48792;BME280;34587;48.816;9.420;2023-08-21T15:36:41;99054.97;;;33.21;47.98
48792;BME280;34587;48.816;9.420;2023-08-21T15:39:07;99049.28;;;33.40;47.21
48792;BME280;34587;48.816;9.420;2023-08-21T15:41:32;99046.31;;;33.43;46.26
48792;BME280;34587;48.816;9.420;2023-08-21T15:43:58;99051.00;;;33.74;45.98
48792;BME280;34587;48.816;9.420;2023-08-21T15:46:23;99050.69;;;33.85;45.25
48792;BME280;34587;48.816;9.420;2023-08-21T15:48:48;99049.50;;;33.80;47.15
48792;BME280;34587;48.816;9.420;2023-08-21T15:51:13;99048.34;;;33.58;46.81
48792;BME280;34587;48.816;9.420;2023-08-21T15:53:39;99048.31;;;33.49;46.70
48792;BME280;34587;48.816;9.420;2023-08-21T15:56:04;99044.31;;;33.54;46.24
48792;BME280;34587;48.816;9.420;2023-08-21T15:58:30;99036.91;;;33.56;45.86
48792;BME280;34587;48.816;9.420;2023-08-21T16:00:57;99038.56;;;33.65;46.35
48792;BME280;34587;48.816;9.420;2023-08-21T16:03:22;99038.59;;;33.48;46.44
48792;BME280;34587;48.816;9.420;2023-08-21T16:05:48;99036.59;;;33.42;46.91
48792;BME280;34587;48.816;9.420;2023-08-21T16:08:13;99029.34;;;33.67;45.87
48792;BME280;34587;48.816;9.420;2023-08-21T16:10:38;99029.69;;;33.81;46.43
48792;BME280;34587;48.816;9.420;2023-08-21T16:13:03;99030.19;;;33.43;46.90
48792;BME280;34587;48.816;9.420;2023-08-21T16:15:29;99029.25;;;33.02;46.99
48792;BME280;34587;48.816;9.420;2023-08-21T16:17:54;99023.25;;;33.41;46.91
48792;BME280;34587;48.816;9.420;2023-08-21T16:20:19;99019.09;;;33.55;45.59
48792;BME280;34587;48.816;9.420;2023-08-21T16:22:45;99022.44;;;33.40;47.73
48792;BME280;34587;48.816;9.420;2023-08-21T16:25:10;99030.16;;;33.35;46.67
48792;BME280;34587;48.816;9.420;2023-08-21T16:27:38;99028.78;;;33.15;47.35
48792;BME280;34587;48.816;9.420;2023-08-21T16:30:04;99026.00;;;32.74;48.58
48792;BME280;34587;48.816;9.420;2023-08-21T16:32:29;99024.50;;;32.37;49.53
48792;BME280;34587;48.816;9.420;2023-08-21T16:34:55;99026.63;;;32.68;48.69
48792;BME280;34587;48.816;9.420;2023-08-21T16:37:20;99024.66;;;32.86;48.06
48792;BME280;34587;48.816;9.420;2023-08-21T16:39:45;99024.41;;;32.55;48.73
48792;BME280;34587;48.816;9.420;2023-08-21T16:42:11;99028.94;;;32.55;48.46
48792;BME280;34587;48.816;9.420;2023-08-21T16:44:36;99033.25;;;32.47;50.07
48792;BME280;34587;48.816;9.420;2023-08-21T16:47:01;99027.88;;;32.47;49.77
48792;BME280;34587;48.816;9.420;2023-08-21T16:49:27;99027.44;;;32.26;49.58
48792;BME280;34587;48.816;9.420;2023-08-21T16:51:52;99022.75;;;32.28;50.33
48792;BME280;34587;48.816;9.420;2023-08-21T16:54:18;99022.88;;;32.53;49.45
48792;BME280;34587;48.816;9.420;2023-08-21T16:56:44;99031.44;;;32.22;50.97
48792;BME280;34587;48.816;9.420;2023-08-21T16:59:09;99030.44;;;32.23;51.08
48792;BME280;34587;48.816;9.420;2023-08-21T17:01:34;99028.41;;;32.25;52.35
48792;BME280;34587;48.816;9.420;2023-08-21T17:03:59;99025.94;;;32.32;51.82
48792;BME280;34587;48.816;9.420;2023-08-21T17:06:25;99025.66;;;32.09;52.59
48792;BME280;34587;48.816;9.420;2023-08-21T17:08:50;99032.50;;;32.03;51.83
48792;BME280;34587;48.816;9.420;2023-08-21T17:11:15;99030.38;;;31.89;52.55
48792;BME280;34587;48.816;9.420;2023-08-21T17:13:41;99033.41;;;31.68;52.62
48792;BME280;34587;48.816;9.420;2023-08-21T17:16:06;99031.09;;;31.73;53.71